createdAt,value
2023-04-01T00:02:20.218Z,26
2023-04-01T00:05:08.371Z,27
2023-04-01T00:07:56.034Z,23
2023-04-01T00:10:43.819Z,24
2023-04-01T00:13:31.535Z,23
2023-04-01T00:16:21.444Z,20
2023-04-01T00:19:09.636Z,26
2023-04-01T00:21:57.459Z,20
2023-04-01T00:24:45.295Z,26
2023-04-01T00:27:33.027Z,28
2023-04-01T00:30:20.784Z,14
2023-04-01T00:33:08.787Z,23
2023-04-01T00:35:56.563Z,17
2023-04-01T00:38:44.579Z,18
2023-04-01T00:41:32.313Z,16
2023-04-01T00:44:20.051Z,16
2023-04-01T00:47:07.805Z,25
2023-04-01T00:49:55.847Z,10
2023-04-01T00:52:43.546Z,14
2023-04-01T00:55:31.263Z,25
2023-04-01T00:58:19.216Z,19
2023-04-01T01:01:07.105Z,25
2023-04-01T01:03:55.214Z,17
2023-04-01T01:06:43.127Z,20
2023-04-01T01:09:30.864Z,22
2023-04-01T01:12:18.594Z,26
2023-04-01T01:15:06.423Z,31
2023-04-01T01:17:54.118Z,29
2023-04-01T01:20:41.917Z,8
2023-04-01T01:23:29.625Z,15
2023-04-01T01:26:17.270Z,15
2023-04-01T01:29:04.865Z,18
2023-04-01T01:31:52.658Z,21
2023-04-01T01:34:40.392Z,23
2023-04-01T01:37:28.158Z,21
2023-04-01T01:40:15.960Z,23
2023-04-01T01:43:03.774Z,22
2023-04-01T01:45:51.404Z,15
2023-04-01T01:48:39.433Z,9
2023-04-01T01:51:27.148Z,20
2023-04-01T01:54:14.955Z,18
2023-04-01T01:57:02.831Z,24
2023-04-01T01:59:50.876Z,4
2023-04-01T02:02:38.697Z,10
2023-04-01T02:05:26.842Z,14
2023-04-01T02:08:14.580Z,15
2023-04-01T02:11:02.370Z,15
2023-04-01T02:13:50.173Z,14
2023-04-01T02:16:37.861Z,21
2023-04-01T02:19:25.591Z,18
2023-04-01T02:22:13.369Z,10
2023-04-01T02:25:01.056Z,16
2023-04-01T02:27:48.856Z,17
2023-04-01T02:30:36.666Z,29
2023-04-01T02:33:24.549Z,12
2023-04-01T02:36:12.258Z,13
2023-04-01T02:39:00.143Z,14
2023-04-01T02:41:47.861Z,29
2023-04-01T02:44:35.712Z,2
2023-04-01T02:47:23.460Z,23
2023-04-01T02:50:11.397Z,16
2023-04-01T02:52:59.139Z,0
2023-04-01T02:55:46.900Z,4
2023-04-01T02:58:34.635Z,23
2023-04-01T03:01:22.520Z,17
2023-04-01T03:04:10.328Z,19
2023-04-01T03:06:58.163Z,13
2023-04-01T03:09:45.791Z,12
2023-04-01T03:12:33.576Z,14
2023-04-01T03:15:21.125Z,17
2023-04-01T03:18:09.063Z,4
2023-04-01T03:20:56.794Z,13
2023-04-01T03:23:44.499Z,19
2023-04-01T03:26:32.233Z,9
2023-04-01T03:29:19.962Z,9
2023-04-01T03:32:07.800Z,6
2023-04-01T03:34:55.664Z,10
2023-04-01T03:37:43.423Z,13
2023-04-01T03:40:31.093Z,5
2023-04-01T03:43:18.723Z,26
2023-04-01T03:46:06.703Z,13
2023-04-01T03:48:54.852Z,8
2023-04-01T03:51:42.507Z,17
2023-04-01T03:54:30.263Z,1
2023-04-01T03:57:18.051Z,12
2023-04-01T04:00:05.637Z,9
2023-04-01T04:02:53.434Z,1
2023-04-01T04:05:41.709Z,19
2023-04-01T04:08:29.542Z,12
2023-04-01T04:11:17.481Z,23
2023-04-01T04:14:05.369Z,8
2023-04-01T04:16:53.048Z,11
2023-04-01T04:19:40.782Z,4
2023-04-01T04:22:28.412Z,14
2023-04-01T04:25:16.215Z,12
2023-04-01T04:28:03.982Z,26
2023-04-01T04:30:51.758Z,7
2023-04-01T04:33:39.545Z,20
2023-04-01T04:36:27.323Z,15
2023-04-01T04:39:14.902Z,27
2023-04-01T04:42:02.711Z,22
2023-04-01T04:44:50.519Z,32
2023-04-01T04:47:38.408Z,52
2023-04-01T04:50:26.342Z,69
2023-04-01T04:53:14.080Z,100
2023-04-01T04:56:01.810Z,109
2023-04-01T04:58:49.716Z,155
2023-04-01T05:01:37.558Z,201
2023-04-01T05:04:25.516Z,271
2023-04-01T05:07:13.463Z,278
2023-04-01T05:10:01.288Z,311
2023-04-01T05:12:48.915Z,317
2023-04-01T05:15:36.831Z,356
2023-04-01T05:18:24.582Z,372
2023-04-01T05:21:12.419Z,382
2023-04-01T05:24:00.137Z,458
2023-04-01T05:26:47.982Z,490
2023-04-01T05:29:35.621Z,542
2023-04-01T05:32:23.739Z,593
2023-04-01T05:35:11.650Z,552
2023-04-01T05:37:59.584Z,588
2023-04-01T05:40:47.219Z,615
2023-04-01T05:43:35.046Z,638
2023-04-01T05:46:22.806Z,683
2023-04-01T05:49:10.705Z,705
2023-04-01T05:51:58.550Z,682
2023-04-01T05:54:46.383Z,715
2023-04-01T05:57:34.040Z,767
2023-04-01T06:00:21.744Z,815
2023-04-01T06:03:29.048Z,859
2023-04-01T06:06:17.556Z,864
2023-04-01T06:09:05.416Z,878
2023-04-01T06:11:53.304Z,868
2023-04-01T06:14:40.990Z,864
2023-04-01T06:17:28.936Z,835
2023-04-01T06:20:16.964Z,822
2023-04-01T06:23:04.733Z,814
2023-04-01T06:25:52.651Z,828
2023-04-01T06:28:40.667Z,830
2023-04-01T06:31:28.437Z,834
2023-04-01T06:34:16.450Z,862
2023-04-01T06:37:04.135Z,885
2023-04-01T06:39:52.136Z,875
2023-04-01T06:42:39.945Z,892
2023-04-01T06:45:27.580Z,891
2023-04-01T06:48:15.525Z,895
2023-04-01T06:51:03.500Z,919
2023-04-01T06:53:51.236Z,909
2023-04-01T06:56:39.004Z,912
2023-04-01T06:59:26.953Z,900
2023-04-01T07:02:14.737Z,900
2023-04-01T07:05:02.592Z,904
2023-04-01T07:07:51.446Z,893
2023-04-01T07:10:39.106Z,898
2023-04-01T07:13:27.076Z,894
2023-04-01T07:16:14.986Z,888
2023-04-01T07:19:03.067Z,888
2023-04-01T07:21:50.724Z,897
2023-04-01T07:24:38.530Z,902
2023-04-01T07:27:26.262Z,897
2023-04-01T07:30:14.074Z,916
2023-04-01T07:33:02.083Z,910
2023-04-01T07:35:50.225Z,925
2023-04-01T07:38:38.211Z,924
2023-04-01T07:41:26.053Z,901
2023-04-01T07:44:13.711Z,908
2023-04-01T07:47:01.649Z,924
2023-04-01T07:49:49.708Z,920
2023-04-01T07:52:37.612Z,921
2023-04-01T07:55:25.280Z,924
2023-04-01T07:58:12.914Z,931
2023-04-01T08:01:00.640Z,938
2023-04-01T08:03:48.495Z,954
2023-04-01T08:06:36.976Z,942
2023-04-01T08:09:24.961Z,947
2023-04-01T08:12:12.851Z,942
2023-04-01T08:15:00.787Z,937
2023-04-01T08:17:48.682Z,930
2023-04-01T08:20:36.531Z,931
2023-04-01T08:23:24.334Z,927
2023-04-01T08:26:12.122Z,931
2023-04-01T08:28:59.951Z,927
2023-04-01T08:31:47.756Z,933
2023-04-01T08:34:35.678Z,944
2023-04-01T08:37:23.631Z,938
2023-04-01T08:40:11.394Z,930
2023-04-01T08:42:59.174Z,932
2023-04-01T08:45:46.922Z,942
2023-04-01T08:48:35.063Z,930
2023-04-01T08:51:22.882Z,946
2023-04-01T08:54:10.739Z,948
2023-04-01T08:56:58.443Z,936
2023-04-01T08:59:46.457Z,947
2023-04-01T09:02:34.400Z,947
2023-04-01T09:05:23.079Z,943
2023-04-01T09:08:10.912Z,951
2023-04-01T09:10:58.771Z,960
2023-04-01T09:13:46.737Z,951
2023-04-01T09:16:34.574Z,944
2023-04-01T09:19:22.366Z,950
2023-04-01T09:22:10.129Z,933
2023-04-01T09:24:57.752Z,949
2023-04-01T09:27:45.733Z,954
2023-04-01T09:30:33.426Z,940
2023-04-01T09:33:21.484Z,934
2023-04-01T09:36:09.193Z,943
2023-04-01T09:38:57.099Z,927
2023-04-01T09:41:44.717Z,934
2023-04-01T09:44:32.546Z,933
2023-04-01T09:47:20.499Z,953
2023-04-01T09:50:08.487Z,947
2023-04-01T09:52:56.241Z,948
2023-04-01T09:55:43.960Z,958
2023-04-01T09:58:31.513Z,955
2023-04-01T10:01:19.408Z,957
2023-04-01T10:04:07.452Z,938
2023-04-01T10:06:55.110Z,930
2023-04-01T10:09:42.878Z,936
2023-04-01T10:12:30.751Z,942
2023-04-01T10:15:18.533Z,946
2023-04-01T10:18:06.413Z,948
2023-04-01T10:20:54.304Z,957
2023-04-01T10:23:42.189Z,950
2023-04-01T10:26:30.032Z,955
2023-04-01T10:29:17.838Z,948
2023-04-01T10:32:05.621Z,936
2023-04-01T10:34:53.604Z,954
2023-04-01T10:37:41.568Z,949
2023-04-01T10:40:29.348Z,937
2023-04-01T10:43:16.997Z,927
2023-04-01T10:46:04.824Z,933
2023-04-01T10:48:52.838Z,944
2023-04-01T10:51:40.708Z,949
2023-04-01T10:54:28.466Z,929
2023-04-01T10:57:16.390Z,937
2023-04-01T11:00:04.335Z,932
2023-04-01T11:02:52.092Z,932
2023-04-01T11:05:40.266Z,919
2023-04-01T11:08:28.076Z,923
2023-04-01T11:11:15.984Z,922
2023-04-01T11:14:03.872Z,929
2023-04-01T11:16:51.764Z,933
2023-04-01T11:19:39.686Z,940
2023-04-01T11:22:27.282Z,921
2023-04-01T11:25:15.230Z,923
2023-04-01T11:28:03.044Z,922
2023-04-01T11:30:50.790Z,922
2023-04-01T11:33:38.609Z,924
2023-04-01T11:36:26.293Z,934
2023-04-01T11:39:14.177Z,936
2023-04-01T11:42:01.888Z,944
2023-04-01T11:44:49.692Z,921
2023-04-01T11:47:37.388Z,905
2023-04-01T11:50:25.307Z,919
2023-04-01T11:53:13.096Z,914
2023-04-01T11:56:00.897Z,887
2023-04-01T11:58:48.580Z,898
2023-04-01T12:01:36.329Z,917
2023-04-01T12:04:23.980Z,925
2023-04-01T12:07:12.028Z,941
2023-04-01T12:09:59.842Z,957
2023-04-01T12:12:54.454Z,957
2023-04-01T12:15:48.180Z,963
2023-04-01T12:18:35.994Z,976
2023-04-01T12:21:23.828Z,970
2023-04-01T12:24:11.560Z,964
2023-04-01T12:26:59.406Z,972
2023-04-01T12:29:47.184Z,981
2023-04-01T12:32:35.043Z,968
2023-04-01T12:35:23.009Z,962
2023-04-01T12:38:10.905Z,953
2023-04-01T12:40:58.679Z,959
2023-04-01T12:43:46.453Z,957
2023-04-01T12:46:34.295Z,947
2023-04-01T12:49:22.093Z,946
2023-04-01T12:52:09.972Z,930
2023-04-01T12:55:00.289Z,935
2023-04-01T12:57:48.632Z,928
2023-04-01T13:00:36.690Z,948
2023-04-01T13:03:24.744Z,943
2023-04-01T13:06:13.054Z,927
2023-04-01T13:09:00.958Z,926
2023-04-01T13:11:48.843Z,934
2023-04-01T13:14:36.806Z,945
2023-04-01T13:17:26.117Z,942
2023-04-01T13:20:13.982Z,937
2023-04-01T13:23:01.997Z,921
2023-04-01T13:25:51.080Z,922
2023-04-01T13:28:42.145Z,928
2023-04-01T13:31:29.848Z,927
2023-04-01T13:34:17.793Z,921
2023-04-01T13:37:05.482Z,924
2023-04-01T13:39:55.938Z,925
2023-04-01T13:42:44.729Z,920
2023-04-01T13:45:33.606Z,908
2023-04-01T13:48:21.440Z,906
2023-04-01T13:51:09.274Z,915
2023-04-01T13:53:57.005Z,916
2023-04-01T13:56:44.824Z,925
2023-04-01T13:59:32.833Z,917
2023-04-01T14:02:10.226Z,928
2023-04-01T14:04:58.078Z,925
2023-04-01T14:08:03.182Z,937
2023-04-01T14:10:50.794Z,921
2023-04-01T14:13:38.687Z,933
2023-04-01T14:16:26.511Z,926
2023-04-01T14:19:14.378Z,929
2023-04-01T14:22:02.208Z,943
2023-04-01T14:24:50.054Z,910
2023-04-01T14:27:37.740Z,891
2023-04-01T14:30:25.537Z,905
2023-04-01T14:33:13.413Z,909
2023-04-01T14:36:01.413Z,915
2023-04-01T14:38:49.266Z,911
2023-04-01T14:41:36.907Z,925
2023-04-01T14:44:41.586Z,907
2023-04-01T14:47:29.398Z,912
2023-04-01T14:50:17.504Z,919
2023-04-01T14:53:05.184Z,898
2023-04-01T14:55:52.863Z,909
2023-04-01T14:58:40.645Z,903
2023-04-01T15:01:28.362Z,882
2023-04-01T15:04:16.250Z,889
2023-04-01T15:07:04.204Z,901
2023-04-01T15:09:51.854Z,897
2023-04-01T15:12:39.612Z,926
2023-04-01T15:15:27.589Z,895
2023-04-01T15:18:15.622Z,885
2023-04-01T15:21:03.458Z,882
2023-04-01T15:23:51.159Z,858
2023-04-01T15:26:38.949Z,900
2023-04-01T15:29:26.951Z,859
2023-04-01T15:32:14.767Z,829
2023-04-01T15:35:02.683Z,848
2023-04-01T15:37:50.723Z,913
2023-04-01T15:40:38.632Z,924
2023-04-01T15:43:26.411Z,937
2023-04-01T15:46:14.022Z,920
2023-04-01T15:49:02.130Z,917
2023-04-01T15:51:49.710Z,936
2023-04-01T15:54:37.519Z,941
2023-04-01T15:57:25.472Z,936
2023-04-01T16:00:13.422Z,941
2023-04-01T16:03:01.086Z,934
2023-04-01T16:05:49.273Z,930
2023-04-01T16:08:37.076Z,934
2023-04-01T16:11:24.882Z,929
2023-04-01T16:14:12.795Z,933
2023-04-01T16:17:00.487Z,915
2023-04-01T16:19:48.553Z,913
2023-04-01T16:22:36.292Z,903
2023-04-01T16:25:23.972Z,880
2023-04-01T16:28:11.791Z,875
2023-04-01T16:30:59.694Z,872
2023-04-01T16:33:47.426Z,881
2023-04-01T16:36:35.208Z,859
2023-04-01T16:39:22.948Z,870
2023-04-01T16:42:10.887Z,859
2023-04-01T16:44:58.808Z,832
2023-04-01T16:47:46.635Z,832
2023-04-01T16:50:34.773Z,852
2023-04-01T16:53:22.722Z,852
2023-04-01T16:56:10.665Z,851
2023-04-01T16:58:58.290Z,849
2023-04-01T17:01:46.204Z,847
2023-04-01T17:04:34.014Z,860
2023-04-01T17:07:22.062Z,859
2023-04-01T17:10:09.803Z,843
2023-04-01T17:12:57.680Z,845
2023-04-01T17:15:45.417Z,835
2023-04-01T17:18:33.475Z,817
2023-04-01T17:21:21.385Z,784
2023-04-01T17:24:09.218Z,770
2023-04-01T17:26:56.912Z,765
2023-04-01T17:29:44.732Z,792
2023-04-01T17:32:32.407Z,772
2023-04-01T17:35:20.586Z,758
2023-04-01T17:38:08.599Z,759
2023-04-01T17:40:56.426Z,735
2023-04-01T17:43:44.117Z,759
2023-04-01T17:46:31.978Z,740
2023-04-01T17:49:19.842Z,559
2023-04-01T17:52:07.634Z,548
2023-04-01T17:54:55.352Z,711
2023-04-01T17:57:43.300Z,440
2023-04-01T18:00:38.604Z,685
2023-04-01T18:03:30.203Z,361
2023-04-01T18:06:18.561Z,316
2023-04-01T18:09:06.368Z,303
2023-04-01T18:11:54.176Z,259
2023-04-01T18:14:41.967Z,176
2023-04-01T18:17:29.755Z,146
2023-04-01T18:20:17.789Z,99
2023-04-01T18:23:05.466Z,332
2023-04-01T18:25:53.291Z,63
2023-04-01T18:28:41.030Z,460
2023-04-01T18:31:28.852Z,296
2023-04-01T18:34:16.832Z,45
2023-04-01T18:37:04.652Z,53
2023-04-01T18:39:52.368Z,49
2023-04-01T18:42:39.995Z,62
2023-04-01T18:45:27.839Z,47
2023-04-01T18:48:15.877Z,53
2023-04-01T18:51:04.684Z,44
2023-04-01T18:53:52.410Z,53
2023-04-01T18:56:40.069Z,51
2023-04-01T18:59:28.211Z,44
2023-04-01T19:02:16.168Z,58
2023-04-01T19:05:04.320Z,56
2023-04-01T19:07:52.499Z,41
2023-04-01T19:10:40.195Z,49
2023-04-01T19:13:31.042Z,39
2023-04-01T19:16:19.007Z,43
2023-04-01T19:19:06.784Z,52
2023-04-01T19:21:54.499Z,348
2023-04-01T19:24:42.119Z,57
2023-04-01T19:27:30.007Z,369
2023-04-01T19:30:17.742Z,104
2023-04-01T19:33:05.377Z,360
2023-04-01T19:35:53.291Z,427
2023-04-01T19:38:41.252Z,405
2023-04-01T19:41:29.027Z,300
2023-04-01T19:44:16.808Z,368
2023-04-01T19:47:04.436Z,30
2023-04-01T19:49:52.405Z,33
2023-04-01T19:52:40.207Z,27
2023-04-01T19:55:27.895Z,35
2023-04-01T19:58:15.569Z,25
2023-04-01T20:01:03.354Z,20
2023-04-01T20:04:04.874Z,23
2023-04-01T20:06:52.743Z,34
2023-04-01T20:09:40.691Z,35
2023-04-01T20:12:28.380Z,37
2023-04-01T20:15:16.149Z,30
2023-04-01T20:18:03.870Z,28
2023-04-01T20:20:51.557Z,27
2023-04-01T20:23:39.344Z,36
2023-04-01T20:26:27.076Z,28
2023-04-01T20:29:14.901Z,21
2023-04-01T20:32:02.504Z,32
2023-04-01T20:34:50.496Z,33
2023-04-01T20:37:38.252Z,42
2023-04-01T20:40:26.038Z,39
2023-04-01T20:43:13.818Z,40
2023-04-01T20:46:01.694Z,33
2023-04-01T20:48:49.907Z,32
2023-04-01T20:51:37.739Z,39
2023-04-01T20:54:25.522Z,39
2023-04-01T20:57:13.423Z,38
2023-04-01T21:00:01.299Z,32
2023-04-01T21:02:49.836Z,30
2023-04-01T21:05:37.577Z,44
2023-04-01T21:08:25.305Z,29
2023-04-01T21:11:13.101Z,31
2023-04-01T21:14:01.002Z,29
2023-04-01T21:16:48.714Z,30
2023-04-01T21:19:36.551Z,345
2023-04-01T21:22:24.229Z,28
2023-04-01T21:25:11.852Z,39
2023-04-01T21:27:59.539Z,44
2023-04-01T21:30:47.248Z,341
2023-04-01T21:33:35.163Z,40
2023-04-01T21:36:23.024Z,30
2023-04-01T21:39:10.768Z,33
2023-04-01T21:41:58.613Z,36
2023-04-01T21:44:46.336Z,28
2023-04-01T21:47:34.112Z,42
2023-04-01T21:50:22.025Z,52
2023-04-01T21:53:09.887Z,36
2023-04-01T21:55:57.566Z,39
2023-04-01T21:58:45.411Z,36
2023-04-01T22:01:33.035Z,35
2023-04-01T22:04:21.168Z,40
2023-04-01T22:07:08.852Z,56
2023-04-01T22:09:56.657Z,40
2023-04-01T22:12:44.474Z,39
2023-04-01T22:15:32.513Z,49
2023-04-01T22:18:20.508Z,55
2023-04-01T22:21:08.435Z,34
2023-04-01T22:23:56.254Z,36
2023-04-01T22:26:44.104Z,42
2023-04-01T22:29:31.781Z,392
2023-04-01T22:32:19.637Z,49
2023-04-01T22:35:07.453Z,40
2023-04-01T22:37:56.031Z,44
2023-04-01T22:40:43.894Z,40
2023-04-01T22:43:31.723Z,70
2023-04-01T22:46:19.437Z,50
2023-04-01T22:49:07.302Z,32
2023-04-01T22:51:55.050Z,47
2023-04-01T22:54:42.888Z,43
2023-04-01T22:57:30.857Z,44
2023-04-01T23:00:18.529Z,44
2023-04-01T23:03:06.282Z,45
2023-04-01T23:05:54.153Z,39
2023-04-01T23:08:41.906Z,48
2023-04-01T23:11:29.643Z,40
2023-04-01T23:14:17.665Z,42
2023-04-01T23:17:05.387Z,45
2023-04-01T23:19:53.131Z,45
2023-04-01T23:22:40.673Z,43
2023-04-01T23:25:28.307Z,34
2023-04-01T23:28:15.934Z,43
2023-04-01T23:31:03.998Z,35
2023-04-01T23:33:51.824Z,42
2023-04-01T23:36:39.892Z,45
2023-04-01T23:39:27.485Z,30
2023-04-01T23:42:15.271Z,42
2023-04-01T23:45:02.977Z,44
2023-04-01T23:47:50.852Z,45
2023-04-01T23:50:38.532Z,37
2023-04-01T23:53:26.221Z,26
2023-04-01T23:56:13.990Z,39
2023-04-01T23:59:01.719Z,42
